Terminal Aerodrome Forecast
Issued by NWS Chicago, IL

Home | Current Version | Previous Version | Graphics & Text | Print | Product List | Glossary On
Versions: 1 2 3 4 5 6 7 8 9 10 11 12 13 14 15 16 17 18 19 20 21 22 23 24 25 26 27 28 29 30 31 32 33
000
FTUS43 KLOT 241700
TAFRFD
TAF
KRFD 241740Z 2418/2518 25023G33KT 1/2SM SN BLSN OVC007
     FM241900 26020G32KT 2SM -SN BLSN BKN009 OVC012
     FM242000 26020G32KT 3SM -SN BKN011 OVC015
     FM242200 26021G32KT 5SM -SN BKN014 OVC020
     FM250100 26018G28KT P6SM -SHSN SCT015 OVC022
     FM250600 27013KT P6SM BKN025 OVC035
     FM251400 27010KT P6SM SCT020 BKN035=

USA.gov is the U.S. government's official web portal to all federal, state and local government web resources and services.